Home Latest Filings Latest Buys Latest Sells Institutions Derivatives Hot Buys Data Screener Email Alerts Insider Charts
Our LatestFilings shows insider buys and sells sorted by file time. Only open market transactions are listed.
Members can see real-time transactions in addition to historical ones. Become a Member
Latest Filings (Total 303 Records Filed 5 Days Ago.)
Buy(P) /
Sell(S)
P/S date Filed Date Company Symbol Insider Relationship Share Amt. Unit Price Total Proceeds Shares Owned Details
S 2020-06-15 2020-07-10 21:36:18.0 CrowdStrike Holdings, Inc. CRWD Watzinger Gerhard director 1,000 $97.00 $97,000.00 9,000 view
S 2020-06-15 2020-07-10 21:36:18.0 CrowdStrike Holdings, Inc. CRWD Watzinger Gerhard director 1,000 $97.00 $97,000.00 9,000 view
S 2020-07-09 2020-07-10 21:29:11.0 BOX INC BOX Levie Aaron director officer 10% owner (Chief Executive Officer) 215,000 $21.02 $4,519,360.00 2,354,570 view
S 2020-07-10 2020-07-10 21:29:11.0 BOX INC BOX Levie Aaron director officer 10% owner (Chief Executive Officer) 86,000 $20.55 $1,767,230.00 2,768,570 view
S 2020-07-08 2020-07-10 21:27:53.0 Priority Technology Holdings, Inc. PRTH Kiewiet Sean officer (Chief Technology Officer) 200 $2.27 $454.00 2,243,260 view
S 2020-07-08 2020-07-10 21:27:53.0 Priority Technology Holdings, Inc. PRTH Kiewiet Sean officer (Chief Technology Officer) 1,496 $2.30 $3,440.80 2,241,760 view
S 2020-07-08 2020-07-10 21:27:53.0 Priority Technology Holdings, Inc. PRTH Kiewiet Sean officer (Chief Technology Officer) 100 $2.31 $231.00 2,241,660 view
S 2020-07-08 2020-07-10 21:22:21.0 Karuna Therapeutics, Inc. KRTX Ignelzi Troy A. officer (Chief Financial Officer) 6,000 $98.32 $589,920.00 2,000 view
S 2020-07-08 2020-07-10 21:22:21.0 Karuna Therapeutics, Inc. KRTX Ignelzi Troy A. officer (Chief Financial Officer) 2,000 $100.00 $200,000.00 0 view
S 2020-07-08 2020-07-10 21:16:42.0 Biohaven Pharmaceutical Holding Co Ltd. BHVN Bailey Gregory 44,009 $75.12 $3,305,880.00 2,601,650 view
S 2020-07-08 2020-07-10 21:16:42.0 Biohaven Pharmaceutical Holding Co Ltd. BHVN Bailey Gregory 5,991 $75.93 $454,888.00 2,595,660 view
S 2020-07-08 2020-07-10 21:16:32.0 Biohaven Pharmaceutical Holding Co Ltd. BHVN Berman Robert (Special Projects & Med Ovrsght) 55,626 $75.25 $4,185,750.00 3,119 view
S 2020-07-08 2020-07-10 21:16:32.0 Biohaven Pharmaceutical Holding Co Ltd. BHVN Berman Robert (Special Projects & Med Ovrsght) 2,778 $75.29 $209,145.00 341 view
S 2020-07-09 2020-07-10 21:01:04.0 Replimune Group, Inc. REPL Coffin Robert director officer (President & Chief R&D Officer) 145,500 $22.32 $3,247,560.00 2,048,370 view
S 2020-07-09 2020-07-10 21:01:04.0 Replimune Group, Inc. REPL Coffin Robert director officer (President & Chief R&D Officer) 24,250 $21.02 $509,735.00 2,024,120 view
S 2020-07-10 2020-07-10 20:54:35.0 COSTCO WHOLESALE CORP /NEW COST GALANTI RICHARD A director officer (Executive VP and CFO) 2,730 $325.07 $887,438.00 20,737 view
S 2020-01-07 2020-07-10 20:29:32.0 Akero Therapeutics, Inc. AKRO Versant Ventures VI GP-GP, LLC various various 10% owner 14,162 $20.05 $283,948.00 2,885,840 view
S 2020-01-08 2020-07-10 20:29:32.0 Akero Therapeutics, Inc. AKRO Versant Ventures VI GP-GP, LLC various various 10% owner 22,368 $19.80 $442,886.00 2,863,470 view
S 2020-01-09 2020-07-10 20:29:32.0 Akero Therapeutics, Inc. AKRO Versant Ventures VI GP-GP, LLC various various 10% owner 16,527 $20.21 $334,011.00 2,846,940 view
S 2020-01-02 2020-07-10 20:29:06.0 Akero Therapeutics, Inc. AKRO Versant Ventures VI GP-GP, LLC various various 10% owner 10,952 $19.89 $217,835.00 3,645,630 view
S 2020-01-02 2020-07-10 20:29:06.0 Akero Therapeutics, Inc. AKRO Versant Ventures VI GP-GP, LLC various various 10% owner 3,900 $21.20 $82,680.00 3,641,730 view
S 2020-01-02 2020-07-10 20:29:06.0 Akero Therapeutics, Inc. AKRO Versant Ventures VI GP-GP, LLC various various 10% owner 1,000 $22.17 $22,170.00 3,640,730 view
S 2020-01-03 2020-07-10 20:29:06.0 Akero Therapeutics, Inc. AKRO Versant Ventures VI GP-GP, LLC various various 10% owner 3,100 $19.18 $59,458.00 2,953,490 view
S 2020-01-03 2020-07-10 20:29:06.0 Akero Therapeutics, Inc. AKRO Versant Ventures VI GP-GP, LLC various various 10% owner 100 $20.27 $2,027.00 2,953,390 view
S 2020-01-06 2020-07-10 20:29:06.0 Akero Therapeutics, Inc. AKRO Versant Ventures VI GP-GP, LLC various various 10% owner 4,968 $17.68 $87,834.20 2,948,420 view
S 2020-01-06 2020-07-10 20:29:06.0 Akero Therapeutics, Inc. AKRO Versant Ventures VI GP-GP, LLC various various 10% owner 6,101 $18.32 $111,770.00 2,942,320 view
S 2020-01-06 2020-07-10 20:29:06.0 Akero Therapeutics, Inc. AKRO Versant Ventures VI GP-GP, LLC various various 10% owner 42,323 $19.93 $843,497.00 2,900,000 view
S 2020-07-08 2020-07-10 20:26:25.0 EACO CORP EACO Ceiley Glen director officer 10% owner (CEO and Chairman) 500 $16.00 $8,000.00 4,705,860 view
S 2020-07-08 2020-07-10 20:26:25.0 EACO CORP EACO Ceiley Glen director officer 10% owner (CEO and Chairman) 200 $16.01 $3,202.00 4,705,660 view
S 2020-07-09 2020-07-10 20:10:01.0 CYTOKINETICS INC CYTK Malik Fady Ibraham officer (EVP Research & Development) 1,587 $26.96 $42,785.50 155,034 view
P 2020-07-09 2020-07-10 20:08:07.0 Concrete Pumping Holdings, Inc. BBCP PIECUCH JOHN M director 2,000 $3.01 $6,020.00 21,590 view
S 2020-07-08 2020-07-10 20:04:02.0 Cloudflare, Inc. NET Prince Matthew director officer 10% owner (CEO & Chair of the Board) 80,994 $38.29 $3,100,950.00 0 view
S 2020-07-09 2020-07-10 20:04:02.0 Cloudflare, Inc. NET Prince Matthew director officer 10% owner (CEO & Chair of the Board) 14,461 $38.26 $553,226.00 37,924 view
S 2020-07-09 2020-07-10 20:04:02.0 Cloudflare, Inc. NET Prince Matthew director officer 10% owner (CEO & Chair of the Board) 28,139 $39.17 $1,102,180.00 9,785 view
S 2020-07-09 2020-07-10 20:04:02.0 Cloudflare, Inc. NET Prince Matthew director officer 10% owner (CEO & Chair of the Board) 9,785 $39.85 $389,968.00 0 view
S 2020-07-10 2020-07-10 20:04:02.0 Cloudflare, Inc. NET Prince Matthew director officer 10% owner (CEO & Chair of the Board) 26,158 $40.03 $1,047,160.00 26,227 view
S 2020-07-10 2020-07-10 20:04:02.0 Cloudflare, Inc. NET Prince Matthew director officer 10% owner (CEO & Chair of the Board) 25,727 $40.90 $1,052,290.00 500 view
S 2020-07-10 2020-07-10 20:04:02.0 Cloudflare, Inc. NET Prince Matthew director officer 10% owner (CEO & Chair of the Board) 500 $41.93 $20,964.50 0 view
S 2020-07-10 2020-07-10 20:02:45.0 BOX INC BOX Smith Dylan C director officer 10% owner (Chief Financial Officer) 15,000 $20.89 $313,350.00 1,218,820 view
S 2020-07-08 2020-07-10 20:01:17.0 Adaptive Biotechnologies Corp ADPT Cohen Chad M officer (Chief Financial Officer) 27,896 $46.82 $1,306,090.00 3,104 view
S 2020-07-08 2020-07-10 20:01:17.0 Adaptive Biotechnologies Corp ADPT Cohen Chad M officer (Chief Financial Officer) 2,104 $47.52 $99,982.10 1,000 view
S 2020-07-09 2020-07-10 20:01:12.0 Adaptive Biotechnologies Corp ADPT HILL NANCY LOUISE officer (EVP, Operations & Program Mana) 17,400 $49.00 $852,600.00 10,000 view
S 2020-07-09 2020-07-10 20:01:06.0 Adaptive Biotechnologies Corp ADPT RUBINSTEIN JULIE officer (President) 15,275 $49.00 $748,475.00 0 view
S 2020-07-09 2020-07-10 19:34:49.0 MSC INDUSTRIAL DIRECT CO INC MSM Martin Edward F Jr officer (SVP, Sales & Customer Success) 653 $64.79 $42,310.90 0 view
S 2020-07-08 2020-07-10 19:24:06.0 Zoom Video Communications, Inc. ZM Hammonds Kimberly director 200 $262.59 $52,518.00 2,925 view
S 2020-07-08 2020-07-10 19:24:06.0 Zoom Video Communications, Inc. ZM Hammonds Kimberly director 347 $263.93 $91,582.70 2,578 view
S 2020-07-08 2020-07-10 19:24:06.0 Zoom Video Communications, Inc. ZM Hammonds Kimberly director 300 $264.88 $79,463.00 2,278 view
S 2020-07-08 2020-07-10 19:24:06.0 Zoom Video Communications, Inc. ZM Hammonds Kimberly director 1,357 $266.25 $361,298.00 921 view
S 2020-07-08 2020-07-10 19:24:06.0 Zoom Video Communications, Inc. ZM Hammonds Kimberly director 821 $267.05 $219,250.00 100 view
S 2020-07-08 2020-07-10 19:24:06.0 Zoom Video Communications, Inc. ZM Hammonds Kimberly director 100 $267.72 $26,772.00 0 view
S 2020-07-08 2020-07-10 19:09:52.0 TheRealReal, Inc. REAL Sahi Levesque Rati officer (Chief Operating Officer) 42,456 $15.02 $637,689.00 308,402 view
S 2020-07-08 2020-07-10 19:09:52.0 TheRealReal, Inc. REAL Sahi Levesque Rati officer (Chief Operating Officer) 11,613 $15.00 $174,195.00 308,402 view
S 2020-07-09 2020-07-10 19:06:39.0 NEKTAR THERAPEUTICS NKTR GREER R SCOTT director 15,009 $25.00 $375,225.00 176,574 view
S 2020-07-08 2020-07-10 19:06:08.0 TheRealReal, Inc. REAL Wainwright Julie officer (CEO, President and Chairperson) 135,585 $14.69 $1,991,740.00 4,436,960 view
S 2020-07-08 2020-07-10 19:05:57.0 NEKTAR THERAPEUTICS NKTR CHESS ROBERT director 8,000 $24.58 $196,640.00 276,973 view
S 2020-07-10 2020-07-10 19:02:09.0 OVERSTOCK.COM, INC OSTK Tuohig Meghan officer (Chief People Officer) 1,500 $50.00 $75,000.00 10,235 view
P 2020-07-10 2020-07-10 19:01:25.0 Midland States Bancorp, Inc. MSBI Tucker Douglas J. (SVP Corporate Counsel) 2,000 $13.00 $26,000.00 20,922 view
S 2020-07-10 2020-07-10 18:58:19.0 SEMTECH CORP SMTC CHUKWU EMEKA (EVP and CFO) 6,000 $53.41 $320,457.00 103,005 view
S 2020-07-10 2020-07-10 18:57:48.0 Aptose Biosciences Inc. APTO Chow Gregory K. officer (Executive VP & CFO) 126,668 $6.05 $766,341.00 232,846 view
S 2020-07-10 2020-07-10 18:55:56.0 Aptose Biosciences Inc. APTO Rice William G. director officer (Chair, President & CEO) 168,891 $6.05 $1,021,790.00 297,523 view
S 2020-07-10 2020-07-10 18:54:01.0 Aptose Biosciences Inc. APTO Marango Jotin officer (Senior VP, Chief Bus. Officer) 62,835 $6.05 $380,152.00 116,219 view
P 2020-07-02 2020-07-10 18:53:04.0 A3 Alternative Credit Fund AAACX Aymond Christian E. 10% owner other 19,194 $10.42 $200,000.00 171,111 view
S 2020-07-08 2020-07-10 18:19:02.0 BOX INC BOX EVAN DANA L director 3,000 $21.18 $63,543.60 113,567 view
S 2020-07-10 2020-07-10 18:19:02.0 BOX INC BOX EVAN DANA L director 3,000 $20.90 $62,700.00 110,567 view
P 2020-07-08 2020-07-10 18:12:42.0 Axovant Gene Therapies Ltd. AXGT Pande Atul director 10,000 $2.73 $27,290.00 23,370 view
P 2020-07-08 2020-07-10 18:11:40.0 Axovant Gene Therapies Ltd. AXGT Cheruvu Pavan director officer (Principal Executive Officer) 37,500 $2.74 $102,638.00 57,836 view
S 2020-07-09 2020-07-10 18:10:58.0 IROBOT CORP IRBT Angle Colin M director officer (Chief Executive Officer) 14,318 $85.92 $1,230,220.00 431,955 view
S 2020-07-09 2020-07-10 18:10:58.0 IROBOT CORP IRBT Angle Colin M director officer (Chief Executive Officer) 15,870 $86.62 $1,374,690.00 416,085 view
S 2020-07-09 2020-07-10 18:10:58.0 IROBOT CORP IRBT Angle Colin M director officer (Chief Executive Officer) 3,911 $87.54 $342,380.00 412,174 view
S 2020-07-08 2020-07-10 18:07:44.0 SEATTLE GENETICS INC /WA SGEN SIEGALL CLAY B director officer (President and CEO) 800 $177.78 $142,224.00 718,339 view
S 2020-07-08 2020-07-10 18:07:44.0 SEATTLE GENETICS INC /WA SGEN SIEGALL CLAY B director officer (President and CEO) 400 $176.94 $70,776.00 718,339 view
S 2020-07-08 2020-07-10 18:07:44.0 SEATTLE GENETICS INC /WA SGEN SIEGALL CLAY B director officer (President and CEO) 6,274 $175.69 $1,102,280.00 718,339 view
S 2020-07-08 2020-07-10 18:07:44.0 SEATTLE GENETICS INC /WA SGEN SIEGALL CLAY B director officer (President and CEO) 16,321 $174.99 $2,856,010.00 718,339 view
S 2020-07-08 2020-07-10 18:07:44.0 SEATTLE GENETICS INC /WA SGEN SIEGALL CLAY B director officer (President and CEO) 4,277 $174.07 $744,497.00 718,339 view
S 2020-07-08 2020-07-10 18:07:44.0 SEATTLE GENETICS INC /WA SGEN SIEGALL CLAY B director officer (President and CEO) 400 $172.55 $69,020.00 718,339 view
S 2020-07-09 2020-07-10 18:06:10.0 PagerDuty, Inc. PD Walker Karen Sammis (Principal Accounting Officer) 1,270 $29.75 $37,784.50 39,647 view
S 2020-07-09 2020-07-10 18:05:23.0 PagerDuty, Inc. PD Tejada Jennifer (Chief Executive Officer) 39,961 $29.79 $1,190,370.00 263,456 view
S 2020-07-09 2020-07-10 18:05:23.0 PagerDuty, Inc. PD Tejada Jennifer (Chief Executive Officer) 12,039 $30.21 $363,668.00 251,417 view
S 2020-07-09 2020-07-10 18:04:35.0 CONAGRA BRANDS INC. CAG Batcheler Colleen officer (EVP Gen Counsel & Corp Secty) 24,673 $36.00 $888,228.00 169,873 view
S 2020-07-10 2020-07-10 18:04:35.0 CONAGRA BRANDS INC. CAG Batcheler Colleen officer (EVP Gen Counsel & Corp Secty) 28,567 $36.00 $1,028,410.00 169,873 view
S 2020-07-10 2020-07-10 17:55:46.0 Edwards Lifesciences Corp EW WANG HUIMIN officer (CVP, Japan & Intercontinental) 2,006 $68.21 $136,820.00 103,435 view
S 2020-07-10 2020-07-10 17:55:46.0 Edwards Lifesciences Corp EW WANG HUIMIN officer (CVP, Japan & Intercontinental) 9,643 $67.30 $649,002.00 93,792 view
S 2020-07-10 2020-07-10 17:54:38.0 Edwards Lifesciences Corp EW BOBO DONALD E JR officer (CVP,Strategy/Corp Development) 2,225 $68.20 $151,740.00 83,681 view
S 2020-07-10 2020-07-10 17:54:38.0 Edwards Lifesciences Corp EW BOBO DONALD E JR officer (CVP,Strategy/Corp Development) 10,849 $67.31 $730,292.00 72,832 view
S 2020-07-10 2020-07-10 17:51:08.0 ALBIREO PHARMA, INC. ALBO Harford Simon N.R. officer (CFO and Treasurer) 92 $25.56 $2,351.52 4,706 view
S 2020-07-08 2020-07-10 17:45:50.0 Sprout Social, Inc. SPT Howard Justyn Russell (President and CEO) 94,200 $27.90 $2,628,560.00 5,800 view
S 2020-07-08 2020-07-10 17:45:50.0 Sprout Social, Inc. SPT Howard Justyn Russell (President and CEO) 5,800 $28.23 $163,717.00 0 view
S 2020-07-09 2020-07-10 17:44:46.0 Zscaler, Inc. ZS Sinha Amit director officer (President of R&D and CTO) 12,204 $125.56 $1,532,300.00 374,498 view
S 2020-07-09 2020-07-10 17:44:46.0 Zscaler, Inc. ZS Sinha Amit director officer (President of R&D and CTO) 16,076 $126.53 $2,034,030.00 358,422 view
S 2020-07-09 2020-07-10 17:44:46.0 Zscaler, Inc. ZS Sinha Amit director officer (President of R&D and CTO) 38,320 $127.57 $4,888,280.00 320,102 view
S 2020-07-09 2020-07-10 17:44:46.0 Zscaler, Inc. ZS Sinha Amit director officer (President of R&D and CTO) 3,400 $128.17 $435,792.00 316,702 view
S 2020-07-09 2020-07-10 17:44:35.0 Zscaler, Inc. ZS Apte Manoj officer (Chief Strategy Officer) 16,666 $125.12 $2,085,210.00 112,256 view
S 2020-07-08 2020-07-10 17:43:17.0 CREDIT ACCEPTANCE CORP CACC FOSS DONALD A 9,775 $433.58 $4,238,200.00 1,778,720 view
P 2020-07-08 2020-07-10 17:31:13.0 W&T OFFSHORE INC WTI KROHN TRACY W CEO 346,358 $2.15 $744,670.00 4.73915E7 view
S 2020-07-09 2020-07-10 17:30:57.0 Edwards Lifesciences Corp EW MUSSALLEM MICHAEL A director officer (Chairman & CEO) 27,143 $68.54 $1,860,380.00 282,627 view
S 2020-07-09 2020-07-10 17:30:57.0 Edwards Lifesciences Corp EW MUSSALLEM MICHAEL A director officer (Chairman & CEO) 41,407 $68.01 $2,816,090.00 241,220 view
S 2020-07-08 2020-07-10 17:29:50.0 NEWMONT Corp /DE/ NEM Engel E Randall officer (EVP, Strategic Development) 5,000 $63.54 $317,700.00 294,341 view
S 2020-07-08 2020-07-10 17:29:39.0 LAKELAND INDUSTRIES INC LAKE RYAN CHRISTOPHER JAMES 13,400 $25.20 $337,680.00 85,105 view
S 2020-07-08 2020-07-10 17:22:27.0 Ultragenyx Pharmaceutical Inc. RARE Huizenga Theodore Alan officer (SVP, Controller and PAO) 638 $91.00 $58,058.00 16,582 view
S 2020-07-08 2020-07-10 17:22:27.0 Ultragenyx Pharmaceutical Inc. RARE Huizenga Theodore Alan officer (SVP, Controller and PAO) 2,000 $91.00 $182,000.00 16,582 view
S 2020-07-08 2020-07-10 17:19:02.0 NEWMONT Corp /DE/ NEM Gottesfeld Stephen P officer (EVP and Chief S&EA Officer) 4,000 $63.54 $254,160.00 150,944 view
S 2020-07-09 2020-07-10 17:17:37.0 KORN FERRY KFY MULROONEY BYRNE K officer (CEO-RPO, Pro. Srch. & Dig.) 10,000 $26.94 $269,445.00 186,423 view
S 2020-07-08 2020-07-10 17:16:33.0 Teladoc Health, Inc. TDOC Turitz Andrew officer (SVP - Business Development) 5,017 $225.00 $1,128,820.00 4,015 view
S 2020-07-07 2020-07-10 17:16:17.0 Teladoc Health, Inc. TDOC GOREVIC JASON N director officer (Chief Executive Officer) 30,000 $218.71 $6,561,300.00 667,283 view
P 2015-06-30 2020-07-10 17:14:27.0 MARTIN MARIETTA MATERIALS INC MLM ZELNAK STEPHEN P JR director 15 $143.14 $2,200.00 52,769 view
P 2015-09-30 2020-07-10 17:14:27.0 MARTIN MARIETTA MATERIALS INC MLM ZELNAK STEPHEN P JR director 15 $149.95 $2,206.15 52,878 view
P 2015-12-31 2020-07-10 17:14:27.0 MARTIN MARIETTA MATERIALS INC MLM ZELNAK STEPHEN P JR director 16 $136.94 $2,212.03 35,994 view
P 2016-03-31 2020-07-10 17:14:27.0 MARTIN MARIETTA MATERIALS INC MLM ZELNAK STEPHEN P JR director 13 $154.78 $2,081.98 36,118 view
P 2016-03-31 2020-07-10 17:14:27.0 MARTIN MARIETTA MATERIALS INC MLM ZELNAK STEPHEN P JR director 1 $154.77 $136.51 36,119 view
P 2016-06-30 2020-07-10 17:14:27.0 MARTIN MARIETTA MATERIALS INC MLM ZELNAK STEPHEN P JR director 12 $186.08 $2,224.23 16,762 view
P 2016-09-30 2020-07-10 17:14:27.0 MARTIN MARIETTA MATERIALS INC MLM ZELNAK STEPHEN P JR director 6 $182.66 $1,080.46 16,860 view
P 2016-12-30 2020-07-10 17:14:27.0 MARTIN MARIETTA MATERIALS INC MLM ZELNAK STEPHEN P JR director 5 $226.41 $1,082.94 16,942 view
P 2017-03-31 2020-07-10 17:14:27.0 MARTIN MARIETTA MATERIALS INC MLM ZELNAK STEPHEN P JR director 5 $214.04 $1,084.95 17,026 view
P 2017-06-30 2020-07-10 17:14:27.0 MARTIN MARIETTA MATERIALS INC MLM ZELNAK STEPHEN P JR director 5 $222.12 $1,087.08 17,544 view
P 2017-09-29 2020-07-10 17:14:27.0 MARTIN MARIETTA MATERIALS INC MLM ZELNAK STEPHEN P JR director 6 $205.96 $1,141.00 17,630 view
P 2017-12-29 2020-07-10 17:14:27.0 MARTIN MARIETTA MATERIALS INC MLM ZELNAK STEPHEN P JR director 5 $218.05 $1,143.44 17,716 view
P 2018-03-29 2020-07-10 17:14:27.0 MARTIN MARIETTA MATERIALS INC MLM ZELNAK STEPHEN P JR director 6 $202.93 $1,145.75 17,805 view
P 2018-06-29 2020-07-10 17:14:27.0 MARTIN MARIETTA MATERIALS INC MLM ZELNAK STEPHEN P JR director 5 $222.48 $1,148.23 18,495 view
P 2018-09-28 2020-07-10 17:14:27.0 MARTIN MARIETTA MATERIALS INC MLM ZELNAK STEPHEN P JR director 7 $185.91 $1,255.09 22,086 view
P 2018-12-31 2020-07-10 17:14:27.0 MARTIN MARIETTA MATERIALS INC MLM ZELNAK STEPHEN P JR director 7 $168.81 $1,258.33 22,183 view
P 2019-03-29 2020-07-10 17:14:27.0 MARTIN MARIETTA MATERIALS INC MLM ZELNAK STEPHEN P JR director 6 $200.34 $1,261.91 22,279 view
P 2019-06-28 2020-07-10 17:14:27.0 MARTIN MARIETTA MATERIALS INC MLM ZELNAK STEPHEN P JR director 6 $226.65 $1,264.93 22,966 view
P 2019-09-30 2020-07-10 17:14:27.0 MARTIN MARIETTA MATERIALS INC MLM ZELNAK STEPHEN P JR director 5 $271.29 $1,452.47 23,038 view
P 2019-12-31 2020-07-10 17:14:27.0 MARTIN MARIETTA MATERIALS INC MLM ZELNAK STEPHEN P JR director 5 $277.43 $1,455.42 23,106 view
P 2020-03-31 2020-07-10 17:14:27.0 MARTIN MARIETTA MATERIALS INC MLM ZELNAK STEPHEN P JR director 8 $177.24 $1,458.30 23,190 view
S 2020-06-05 2020-07-10 17:14:27.0 MARTIN MARIETTA MATERIALS INC MLM ZELNAK STEPHEN P JR director 3,500 $226.80 $793,804.00 19,690 view
S 2020-06-05 2020-07-10 17:14:27.0 MARTIN MARIETTA MATERIALS INC MLM ZELNAK STEPHEN P JR director 13,385 $225.23 $3,014,610.00 6,305 view
S 2020-06-10 2020-07-10 17:14:27.0 MARTIN MARIETTA MATERIALS INC MLM ZELNAK STEPHEN P JR director 1,350 $207.74 $280,443.00 4,955 view
S 2020-07-09 2020-07-10 17:14:01.0 DEXCOM INC DXCM Murphy Patrick Michael officer (EVP, Chief Legal Officer) 500 $435.80 $217,900.00 28,676 view
S 2020-07-08 2020-07-10 17:13:50.0 WINNEBAGO INDUSTRIES INC WGO Bhattacharya Ashis Nayan officer (VP-Strategic Dev. & Planning) 402 $62.00 $24,924.00 23,127 view
S 2020-07-08 2020-07-10 17:13:50.0 WINNEBAGO INDUSTRIES INC WGO Bhattacharya Ashis Nayan officer (VP-Strategic Dev. & Planning) 754 $61.00 $45,994.00 22,373 view
S 2020-07-08 2020-07-10 17:11:45.0 ELECTRONIC ARTS INC. EA Jorgensen Blake J officer (COO & CFO) 3,800 $135.22 $513,836.00 79,260 view
S 2020-07-08 2020-07-10 17:11:45.0 ELECTRONIC ARTS INC. EA Jorgensen Blake J officer (COO & CFO) 2,175 $135.86 $295,496.00 77,085 view
P 2018-09-11 2020-07-10 17:11:29.0 KORN FERRY KFY Arian Mark CEO 100 $50.99 $5,099.00 21,677 view
S 2020-07-08 2020-07-10 17:05:58.0 US XPRESS ENTERPRISES INC USX Anna Marie Quinn 2012 Irrevocable Trust FBO Lisa M. Pate various 10% owner other 100,000 $6.11 $610,880.00 2,483,910 view
S 2020-07-08 2020-07-10 17:04:02.0 Dell Technologies Inc. DELL Sweet Thomas W officer (Chief Financial Officer) 92,809 $53.46 $4,961,570.00 82,360 view
S 2020-07-08 2020-07-10 17:04:02.0 Dell Technologies Inc. DELL Sweet Thomas W officer (Chief Financial Officer) 7,191 $54.01 $388,386.00 75,169 view
S 2020-07-08 2020-07-10 17:01:25.0 NantKwest, Inc. NK Simon Barry J. director officer (See remarks) 39,950 $13.14 $524,759.00 3,170,540 view
S 2020-07-08 2020-07-10 17:00:02.0 Slack Technologies, Inc. WORK Henderson Cal officer (Chief Technology Officer) 414 $32.41 $13,417.70 157,361 view
S 2020-07-08 2020-07-10 17:00:02.0 Slack Technologies, Inc. WORK Henderson Cal officer (Chief Technology Officer) 590 $33.26 $19,623.40 156,771 view
S 2020-07-08 2020-07-10 17:00:02.0 Slack Technologies, Inc. WORK Henderson Cal officer (Chief Technology Officer) 496 $34.00 $16,864.00 156,275 view
S 2020-07-09 2020-07-10 17:00:02.0 Slack Technologies, Inc. WORK Henderson Cal officer (Chief Technology Officer) 993 $32.68 $32,451.20 155,282 view
S 2020-07-09 2020-07-10 17:00:02.0 Slack Technologies, Inc. WORK Henderson Cal officer (Chief Technology Officer) 507 $33.78 $17,126.50 154,775 view
S 2020-07-08 2020-07-10 16:49:02.0 CrowdStrike Holdings, Inc. CRWD Sexton Joseph E. director 49,898 $108.88 $5,432,890.00 26,887 view
S 2020-07-08 2020-07-10 16:49:02.0 CrowdStrike Holdings, Inc. CRWD Sexton Joseph E. director 25,102 $110.00 $2,761,220.00 1,785 view
S 2020-07-09 2020-07-10 16:49:02.0 CrowdStrike Holdings, Inc. CRWD Sexton Joseph E. director 6,719 $116.07 $779,874.00 7,566 view
S 2020-07-09 2020-07-10 16:49:02.0 CrowdStrike Holdings, Inc. CRWD Sexton Joseph E. director 4,404 $116.82 $514,475.00 3,162 view
S 2020-07-09 2020-07-10 16:49:02.0 CrowdStrike Holdings, Inc. CRWD Sexton Joseph E. director 1,377 $117.80 $162,211.00 1,785 view
S 2020-07-08 2020-07-10 16:45:02.0 Progyny, Inc. PGNY Payson Norman director 6,000 $25.79 $154,740.00 633,599 view
S 2020-07-08 2020-07-10 16:45:02.0 Progyny, Inc. PGNY Payson Norman director 6,000 $25.79 $154,740.00 633,599 view
S 2020-07-08 2020-07-10 16:45:02.0 Progyny, Inc. PGNY Payson Norman director 4,500 $25.79 $116,055.00 746,000 view
S 2020-07-09 2020-07-10 16:45:02.0 Progyny, Inc. PGNY Payson Norman director 6,000 $25.74 $154,440.00 627,599 view
S 2020-07-09 2020-07-10 16:45:02.0 Progyny, Inc. PGNY Payson Norman director 6,000 $25.74 $154,440.00 627,599 view
S 2020-07-09 2020-07-10 16:45:02.0 Progyny, Inc. PGNY Payson Norman director 4,500 $25.74 $115,830.00 741,500 view
S 2020-07-09 2020-07-10 16:44:05.0 Plantation Corp. PTNL Machado Christian 10% owner 25,000 $0.10 $2,500.00 9,170,840 view
S 2020-07-09 2020-07-10 16:44:05.0 Plantation Corp. PTNL Machado Christian 10% owner 16,000 $0.10 $1,600.00 9,154,840 view
S 2020-07-08 2020-07-10 16:39:58.0 e.l.f. Beauty, Inc. ELF MARCHISOTTO KORY officer (See Remarks) 7,194 $20.04 $144,179.00 149,280 view
S 2020-07-08 2020-07-10 16:39:37.0 e.l.f. Beauty, Inc. ELF AMIN TARANG director officer (Chief Executive Officer) 63,044 $19.99 $1,260,120.00 3,071,240 view
S 2020-07-08 2020-07-10 16:39:37.0 e.l.f. Beauty, Inc. ELF AMIN TARANG director officer (Chief Executive Officer) 3,528 $19.95 $70,383.60 512,165 view
S 2020-07-08 2020-07-10 16:39:37.0 e.l.f. Beauty, Inc. ELF AMIN TARANG director officer (Chief Executive Officer) 3,528 $19.95 $70,383.60 512,165 view
S 2020-07-09 2020-07-10 16:39:37.0 e.l.f. Beauty, Inc. ELF AMIN TARANG director officer (Chief Executive Officer) 2,097 $20.95 $43,932.10 3,069,140 view
S 2020-07-09 2020-07-10 16:37:47.0 TAKE TWO INTERACTIVE SOFTWARE INC TTWO Goldstein Lainie officer (Chief Financial Officer) 20,000 $150.00 $3,000,000.00 211,654 view
S 2020-07-08 2020-07-10 16:37:16.0 TRUPANION, INC. TRUP RAWLINGS DARRYL director officer (President and CEO) 4,000 $45.18 $180,722.00 938,222 view
S 2020-07-08 2020-07-10 16:36:03.0 Intercontinental Exchange, Inc. ICE Wassersug Mark officer (Chief Operating Officer) 2,448 $92.68 $226,881.00 29,187 view
P 2020-07-08 2020-07-10 16:35:11.0 Harvest Capital Credit Corp HCAP Jolson Joseph A CEO 546 $4.00 $2,184.00 825,858 view
P 2020-07-10 2020-07-10 16:35:11.0 Harvest Capital Credit Corp HCAP Jolson Joseph A CEO 11,848 $4.00 $47,392.00 837,706 view
S 2020-07-09 2020-07-10 16:35:11.0 TAKE TWO INTERACTIVE SOFTWARE INC TTWO Emerson Daniel P officer (Chief Legal Officer) 5,318 $150.00 $797,700.00 40,833 view
P 2020-07-08 2020-07-10 16:34:02.0 AUDIOEYE INC AEYE ZYNGIER ALEXANDRE director 16,260 $9.23 $149,998.00 26,660 view
P 2020-07-08 2020-07-10 16:34:02.0 89bio, Inc. ETNB Shah Rajeev M. various various various director 10% owner 275,000 $27.50 $7,562,500.00 3,436,210 view
S 2020-07-09 2020-07-10 16:34:02.0 Plantation Corp. PTNL Bray Adrian A director officer 10% owner (Chief Financial Officer) 25,000 $0.10 $2,500.00 9,970,840 view
S 2020-07-09 2020-07-10 16:34:02.0 Plantation Corp. PTNL Bray Adrian A director officer 10% owner (Chief Financial Officer) 16,000 $0.10 $1,600.00 9,954,840 view
S 2020-07-09 2020-07-10 16:32:38.0 Grocery Outlet Holding Corp. GO McMahon Thomas H. officer (See Remarks) 45,000 $42.84 $1,927,800.00 99,873 view
S 2020-07-08 2020-07-10 16:31:45.0 AUDIOEYE INC AEYE Bettis Carr director officer 10% owner (Exec Chrmn/Chrmn of the Board) 16,260 $9.23 $149,998.00 492,728 view
S 2020-07-08 2020-07-10 16:31:24.0 Chewy, Inc. CHWY Bowman Stacy officer (Principal Accounting Officer) 5,600 $48.21 $269,976.00 153,920 view
S 2020-07-08 2020-07-10 16:31:14.0 Frequency Therapeutics, Inc. FREQ Loose Christopher R. officer (Chief Scientific Officer) 3,721 $22.18 $82,547.80 167,061 view
S 2020-07-08 2020-07-10 16:31:14.0 Frequency Therapeutics, Inc. FREQ Loose Christopher R. officer (Chief Scientific Officer) 779 $22.97 $17,891.30 166,282 view
S 2020-07-10 2020-07-10 16:29:08.0 KELLOGG CO K KELLOGG W K FOUNDATION various 10% owner 100,000 $66.94 $6,694,100.00 6.14318E7 view
S 2020-07-09 2020-07-10 16:28:16.0 DOMO, INC. DOMO Felt Bruce C. Jr. officer (Chief Financial Officer) 9,676 $37.58 $363,624.00 245,830 view
S 2020-07-09 2020-07-10 16:28:16.0 DOMO, INC. DOMO Felt Bruce C. Jr. officer (Chief Financial Officer) 5,324 $38.02 $202,418.00 240,506 view
S 2020-07-09 2020-07-10 16:27:24.0 NEUROCRINE BIOSCIENCES INC NBIX Lippoldt Darin officer (Chief Legal Officer) 1,657 $136.02 $225,386.00 26,021 view
S 2020-07-08 2020-07-10 16:25:39.0 LABORATORY CORP OF AMERICA HOLDINGS LH Williams R Sanders director 1,300 $173.12 $225,056.00 5,095 view
S 2020-07-08 2020-07-10 16:25:24.0 SONIC AUTOMOTIVE INC SAH Byrd Heath officer (EVP and CFO) 11,935 $35.00 $417,725.00 141,801 view
S 2020-07-10 2020-07-10 16:25:24.0 SONIC AUTOMOTIVE INC SAH Byrd Heath officer (EVP and CFO) 7,565 $35.01 $264,851.00 134,236 view
P 2020-07-09 2020-07-10 16:22:31.0 CORTLAND BANCORP INC CLDB WOOFTER TIMOTHY K director 116 $12.91 $1,500.00 11,426 view
S 2020-07-08 2020-07-10 16:22:00.0 PennyMac Financial Services, Inc. PFSI Walker David M officer (Chief Risk Officer) 8,973 $39.99 $358,812.00 294,112 view
S 2020-07-08 2020-07-10 16:22:00.0 PennyMac Financial Services, Inc. PFSI Walker David M officer (Chief Risk Officer) 1,027 $40.62 $41,713.70 293,085 view
S 2020-07-09 2020-07-10 16:22:00.0 PennyMac Financial Services, Inc. PFSI Walker David M officer (Chief Risk Officer) 10,000 $40.07 $400,654.00 283,085 view
P 2020-07-10 2020-07-10 16:19:18.0 VACCINEX, INC. VCNX FCMI Parent Co. various director 10% owner 1,126,760 $3.55 $4,000,000.00 1,710,090 view
P 2020-07-08 2020-07-10 16:19:02.0 Front Yard Residential Corp RESI Burg Scott Edward 150,000 $8.40 $1,260,000.00 7,408,570 view
P 2020-07-08 2020-07-10 16:17:40.0 MITCHAM INDUSTRIES INC MIND Morris Dennis Patrick COO 35,000 $1.64 $57,575.00 50,000 view
P 2020-07-09 2020-07-10 16:17:40.0 MITCHAM INDUSTRIES INC MIND Morris Dennis Patrick COO 16,000 $1.64 $26,240.00 66,000 view
P 2020-07-10 2020-07-10 16:17:40.0 MITCHAM INDUSTRIES INC MIND Morris Dennis Patrick COO 4,000 $1.68 $6,720.00 70,000 view
S 2020-07-09 2020-07-10 16:17:13.0 FORMFACTOR INC FORM Rhodes Sheri director 2,010 $31.90 $64,124.60 2,009 view
S 2020-07-08 2020-07-10 16:16:37.0 TELLURIAN INC. /DE/ TELL TOTAL Delaware, Inc. 10% owner 595,833 $1.03 $614,959.00 4.54042E7 view
S 2020-07-09 2020-07-10 16:16:37.0 TELLURIAN INC. /DE/ TELL TOTAL Delaware, Inc. 10% owner 163,356 $1.02 $166,035.00 4.52408E7 view
S 2020-07-08 2020-07-10 16:15:55.0 Twist Bioscience Corp TWST Banyai William (See Remarks) 957 $50.44 $48,272.90 539,635 view
S 2020-07-08 2020-07-10 16:15:55.0 Twist Bioscience Corp TWST Banyai William (See Remarks) 4,200 $52.45 $220,304.00 535,435 view
S 2020-07-08 2020-07-10 16:15:55.0 Twist Bioscience Corp TWST Banyai William (See Remarks) 12,734 $52.97 $674,531.00 522,701 view
S 2020-07-08 2020-07-10 16:15:55.0 Twist Bioscience Corp TWST Banyai William (See Remarks) 6,309 $54.15 $341,656.00 516,392 view
S 2020-07-08 2020-07-10 16:15:55.0 Twist Bioscience Corp TWST Banyai William (See Remarks) 800 $55.04 $44,028.80 515,592 view
S 2020-07-09 2020-07-10 16:12:22.0 Sunnova Energy International Inc. NOVA Allen Stuart D officer (See Remarks) 64,800 $19.09 $1,237,030.00 25,212 view
S 2020-07-08 2020-07-10 16:11:35.0 Quanterix Corp QTRX Madaus Martin D 1,600 $27.00 $43,200.00 11,196 view
S 2020-07-09 2020-07-10 16:11:35.0 Quanterix Corp QTRX Madaus Martin D 1,600 $26.85 $42,960.00 11,196 view
S 2020-07-08 2020-07-10 16:11:19.0 SiteOne Landscape Supply, Inc. SITE BLACK DOUG director officer (CEO) 15,000 $106.80 $1,602,000.00 368,065 view
S 2020-07-09 2020-07-10 16:10:43.0 QUALYS, INC. QLYS Thakar Sumedh S officer (Chief Product Officer) 1,200 $107.36 $128,834.00 183,862 view
S 2020-07-09 2020-07-10 16:10:43.0 QUALYS, INC. QLYS Thakar Sumedh S officer (Chief Product Officer) 800 $108.57 $86,852.00 183,062 view
S 2020-07-09 2020-07-10 16:10:43.0 QUALYS, INC. QLYS Thakar Sumedh S officer (Chief Product Officer) 2,117 $109.56 $231,940.00 180,945 view
S 2020-07-09 2020-07-10 16:10:43.0 QUALYS, INC. QLYS Thakar Sumedh S officer (Chief Product Officer) 100 $110.12 $11,012.00 180,845 view
S 2020-07-08 2020-07-10 16:10:38.0 AMERICAN TOWER CORP /MA/ AMT Puech Olivier officer (EVP & President, LatAm & EMEA) 85 $263.71 $22,415.30 17,915 view
S 2020-07-08 2020-07-10 16:10:38.0 AMERICAN TOWER CORP /MA/ AMT Puech Olivier officer (EVP & President, LatAm & EMEA) 9 $264.24 $2,378.16 17,906 view
S 2020-07-08 2020-07-10 16:10:38.0 AMERICAN TOWER CORP /MA/ AMT Puech Olivier officer (EVP & President, LatAm & EMEA) 160 $266.16 $42,585.60 17,746 view
S 2020-07-08 2020-07-10 16:10:38.0 AMERICAN TOWER CORP /MA/ AMT Puech Olivier officer (EVP & President, LatAm & EMEA) 12 $266.83 $3,201.96 17,734 view
S 2020-07-08 2020-07-10 16:10:38.0 AMERICAN TOWER CORP /MA/ AMT Puech Olivier officer (EVP & President, LatAm & EMEA) 149 $269.11 $40,097.40 17,585 view
S 2020-07-09 2020-07-10 16:10:38.0 AMERICAN TOWER CORP /MA/ AMT Puech Olivier officer (EVP & President, LatAm & EMEA) 3,767 $265.00 $998,255.00 17,585 view
S 2020-07-09 2020-07-10 16:06:52.0 Anika Therapeutics, Inc. ANIK Loerop James officer (EVP Business Development) 1,244 $35.15 $43,726.60 1,756 view
S 2020-07-09 2020-07-10 16:06:26.0 Moderna, Inc. MRNA Bancel Stephane director officer (Chief Executive Officer) 10,000 $62.04 $620,400.00 7,854,880 view
S 2020-07-09 2020-07-10 16:04:29.0 ALNYLAM PHARMACEUTICALS, INC. ALNY Greenstreet Yvonne officer (Chief Operating Officer) 11,236 $161.00 $1,809,000.00 4,820 view
P 2020-07-10 2020-07-10 16:04:23.0 TAURIGA SCIENCES, INC. TAUG SHAW SETH M CEO 700,000 $0.00 $0.00 4,385,200 view
S 2020-07-08 2020-07-10 16:04:08.0 RingCentral, Inc. RNG Marlow John H officer (SVP, CAO & General Counsel) 468 $293.94 $137,564.00 174,349 view
S 2020-07-08 2020-07-10 16:04:08.0 RingCentral, Inc. RNG Marlow John H officer (SVP, CAO & General Counsel) 400 $295.50 $118,200.00 173,949 view
S 2020-07-08 2020-07-10 16:04:08.0 RingCentral, Inc. RNG Marlow John H officer (SVP, CAO & General Counsel) 100 $296.81 $29,681.00 173,849 view
S 2020-07-09 2020-07-10 16:04:08.0 RingCentral, Inc. RNG Marlow John H officer (SVP, CAO & General Counsel) 100 $290.41 $29,041.00 173,749 view
S 2020-07-09 2020-07-10 16:04:08.0 RingCentral, Inc. RNG Marlow John H officer (SVP, CAO & General Counsel) 100 $292.05 $29,205.00 173,649 view
S 2020-07-09 2020-07-10 16:04:08.0 RingCentral, Inc. RNG Marlow John H officer (SVP, CAO & General Counsel) 200 $293.47 $58,694.00 173,449 view
S 2020-07-09 2020-07-10 16:04:08.0 RingCentral, Inc. RNG Marlow John H officer (SVP, CAO & General Counsel) 369 $294.66 $108,730.00 173,080 view
S 2020-07-09 2020-07-10 16:04:08.0 RingCentral, Inc. RNG Marlow John H officer (SVP, CAO & General Counsel) 100 $295.75 $29,575.00 172,980 view
S 2020-07-09 2020-07-10 16:04:08.0 RingCentral, Inc. RNG Marlow John H officer (SVP, CAO & General Counsel) 100 $298.39 $29,839.00 172,880 view
S 2020-07-08 2020-07-10 16:04:02.0 CarGurus, Inc. CARG Steinert Langley director officer 10% owner (CEO and Chairman) 24,011 $27.17 $652,379.00 948,557 view
S 2020-07-08 2020-07-10 16:04:02.0 CarGurus, Inc. CARG Steinert Langley director officer 10% owner (CEO and Chairman) 1,974 $27.17 $53,633.60 183,044 view
S 2020-07-09 2020-07-10 16:04:02.0 CarGurus, Inc. CARG Steinert Langley director officer 10% owner (CEO and Chairman) 23,826 $26.98 $642,826.00 924,731 view
S 2020-07-09 2020-07-10 16:04:02.0 CarGurus, Inc. CARG Steinert Langley director officer 10% owner (CEO and Chairman) 185 $27.67 $5,118.95 924,546 view
S 2020-07-09 2020-07-10 16:04:02.0 CarGurus, Inc. CARG Steinert Langley director officer 10% owner (CEO and Chairman) 1,959 $26.98 $52,853.80 181,085 view
S 2020-07-09 2020-07-10 16:04:02.0 CarGurus, Inc. CARG Steinert Langley director officer 10% owner (CEO and Chairman) 15 $27.67 $415.05 181,070 view
P 2020-07-09 2020-07-10 15:56:26.0 CORTLAND BANCORP INC CLDB THOMPSON RICHARD B director 77 $12.91 $1,000.00 182,312 view
P 2020-07-09 2020-07-10 15:34:33.0 CORTLAND BANCORP INC CLDB HOFFMAN JAMES E III director 62 $12.91 $799.99 10,668 view
P 2020-07-09 2020-07-10 15:12:13.0 CorEnergy Infrastructure Trust, Inc. CORR Fulmer Jeffrey E. (Executive Vice President) 2,000 $7.84 $15,680.00 8,865 view
P 2020-07-09 2020-07-10 15:07:29.0 CORTLAND BANCORP INC CLDB KABACK NEIL J director 62 $12.91 $799.99 10,705 view
P 2020-07-09 2020-07-10 14:35:58.0 CENTURY BANCORP INC CNBKA SLOANE BARRY R director officer (Chairman, CEO and President) 2 $125.59 $214.58 1,700 view
P 2020-07-09 2020-07-10 14:34:02.0 CorEnergy Infrastructure Trust, Inc. CORR SCHULTE DAVID J CEO 2,000 $7.52 $15,040.00 27,000 view
P 2020-07-09 2020-07-10 14:23:35.0 China Foods Holdings Ltd. CFOO Kong Xiao Jun CEO 1.395E7 $0.32 $4,464,000.00 1.8951E7 view
S 2020-07-09 2020-07-10 14:17:28.0 ELI LILLY & Co LLY LILLY ENDOWMENT INC 10% owner 12,741 $169.68 $2,161,920.00 1.11133E8 view
S 2020-07-09 2020-07-10 14:17:28.0 ELI LILLY & Co LLY LILLY ENDOWMENT INC 10% owner 220 $170.32 $37,470.00 1.11132E8 view
S 2020-07-08 2020-07-10 14:08:57.0 Sunnova Energy International Inc. NOVA Baker Walter A officer (See Remarks) 58,503 $18.61 $1,088,740.00 46,511 view
S 2020-07-08 2020-07-10 14:08:57.0 Sunnova Energy International Inc. NOVA Baker Walter A officer (See Remarks) 19,740 $19.42 $383,351.00 26,771 view
S 2020-07-08 2020-07-10 14:08:42.0 HELEN OF TROY LTD HELE Mininberg Julien officer (Chief Executive Officer) 6,158 $195.00 $1,200,810.00 132,555 view
S 2020-07-09 2020-07-10 14:08:42.0 HELEN OF TROY LTD HELE Mininberg Julien officer (Chief Executive Officer) 1,269 $202.22 $256,617.00 131,286 view
S 2020-07-09 2020-07-10 14:08:42.0 HELEN OF TROY LTD HELE Mininberg Julien officer (Chief Executive Officer) 1,272 $203.72 $259,132.00 130,014 view
S 2020-07-09 2020-07-10 14:08:42.0 HELEN OF TROY LTD HELE Mininberg Julien officer (Chief Executive Officer) 7,554 $204.95 $1,548,190.00 122,460 view
S 2020-07-09 2020-07-10 14:08:42.0 HELEN OF TROY LTD HELE Mininberg Julien officer (Chief Executive Officer) 156 $205.37 $32,037.70 122,304 view
S 2020-07-09 2020-07-10 14:08:42.0 HELEN OF TROY LTD HELE Mininberg Julien officer (Chief Executive Officer) 1,121 $272.52 $305,495.00 121,183 view
S 2020-07-09 2020-07-10 14:08:42.0 HELEN OF TROY LTD HELE Mininberg Julien officer (Chief Executive Officer) 122 $210.00 $25,620.00 121,061 view
P 2020-07-01 2020-07-10 13:51:52.0 CODORUS VALLEY BANCORP INC CVLY Messick John Rodney director 200 $13.76 $2,752.00 2,450 view
P 2020-07-08 2020-07-10 13:44:00.0 SPROTT FOCUS TRUST INC. FUND GEORGE W WHITNEY director 10% owner other 30,598 $5.99 $183,221.00 2,168,420 view
P 2020-07-09 2020-07-10 13:44:00.0 SPROTT FOCUS TRUST INC. FUND GEORGE W WHITNEY director 10% owner other 19,402 $5.97 $115,768.00 2,187,820 view
S 2020-07-10 2020-07-10 13:35:37.0 RETRACTABLE TECHNOLOGIES INC RVP KUHLMAN RUSSELL B officer (VP - Sales) 8,800 $7.55 $66,440.00 27,200 view
S 2020-07-10 2020-07-10 13:35:37.0 RETRACTABLE TECHNOLOGIES INC RVP KUHLMAN RUSSELL B officer (VP - Sales) 200 $7.57 $1,514.00 27,000 view
S 2020-07-10 2020-07-10 13:35:37.0 RETRACTABLE TECHNOLOGIES INC RVP KUHLMAN RUSSELL B officer (VP - Sales) 900 $7.56 $6,804.00 26,100 view
S 2020-07-10 2020-07-10 13:35:37.0 RETRACTABLE TECHNOLOGIES INC RVP KUHLMAN RUSSELL B officer (VP - Sales) 100 $7.60 $760.00 26,000 view
P 2020-07-09 2020-07-10 12:27:51.0 CORTLAND BANCORP INC CLDB Langhenry Joseph P director 62 $12.91 $799.99 11,838 view
P 2020-07-08 2020-07-10 12:26:00.0 Barnes & Noble Education, Inc. BNED LEVENICK ZACHARY other 38,529 $1.86 $71,486.70 40,529 view
P 2020-07-09 2020-07-10 12:26:00.0 Barnes & Noble Education, Inc. BNED LEVENICK ZACHARY other 61,471 $1.84 $113,180.00 102,000 view
P 2020-07-09 2020-07-10 12:17:36.0 CORTLAND BANCORP INC CLDB Vross Anthony R director 142 $12.91 $1,833.34 10,138 view
P 2020-07-09 2020-07-10 12:02:04.0 CORTLAND BANCORP INC CLDB Koch Joseph E director 62 $12.91 $799.99 13,562 view
P 2020-07-08 2020-07-10 11:57:02.0 PetVivo Holdings, Inc. PETV Johnson Scott Mitchell director 4,070 $0.83 $3,378.10 538,227 view
P 2020-07-09 2020-07-10 11:39:11.0 FIRST TRUST SENIOR FLOATING RATE 2022 TARGET TERM FUND FIV MCGAREL DAVID officer (Officer-Investment Adviser) 5,000 $8.29 $41,450.00 18,000 view
P 2020-07-09 2020-07-10 11:39:11.0 FIRST TRUST SENIOR FLOATING RATE 2022 TARGET TERM FUND FIV MCGAREL DAVID officer (Officer-Investment Adviser) 2,374 $8.29 $19,680.50 20,374 view
P 2020-07-09 2020-07-10 11:36:38.0 CORTLAND BANCORP INC CLDB COLE DAVID C director 62 $12.91 $799.99 6,634 view
P 2020-06-30 2020-07-10 11:29:35.0 PetVivo Holdings, Inc. PETV Martin James Rudolph director 2,500 $0.39 $982.50 127,351 view
P 2020-06-30 2020-07-10 11:29:35.0 PetVivo Holdings, Inc. PETV Martin James Rudolph director 2,667 $0.40 $1,053.46 130,018 view
P 2020-06-30 2020-07-10 11:29:35.0 PetVivo Holdings, Inc. PETV Martin James Rudolph director 3,067 $0.40 $1,226.80 133,085 view
P 2020-06-30 2020-07-10 11:29:35.0 PetVivo Holdings, Inc. PETV Martin James Rudolph director 2,766 $0.44 $1,217.04 135,851 view
P 2020-07-02 2020-07-10 11:29:35.0 PetVivo Holdings, Inc. PETV Martin James Rudolph director 5,210 $0.44 $2,292.40 141,061 view
P 2020-07-02 2020-07-10 11:29:35.0 PetVivo Holdings, Inc. PETV Martin James Rudolph director 1,090 $0.45 $490.50 142,151 view
P 2020-07-02 2020-07-10 11:29:35.0 PetVivo Holdings, Inc. PETV Martin James Rudolph director 4,000 $0.46 $1,840.00 146,151 view
P 2020-07-06 2020-07-10 11:29:35.0 PetVivo Holdings, Inc. PETV Martin James Rudolph director 6,000 $0.50 $3,000.00 152,151 view
P 2020-07-06 2020-07-10 11:29:35.0 PetVivo Holdings, Inc. PETV Martin James Rudolph director 3,300 $0.52 $1,716.00 155,451 view
P 2020-07-06 2020-07-10 11:29:35.0 PetVivo Holdings, Inc. PETV Martin James Rudolph director 4,684 $0.62 $2,904.08 160,135 view
P 2020-07-08 2020-07-10 11:29:35.0 PetVivo Holdings, Inc. PETV Martin James Rudolph director 2,400 $0.93 $2,232.00 162,535 view
P 2020-07-09 2020-07-10 11:29:35.0 PetVivo Holdings, Inc. PETV Martin James Rudolph director 1,000 $0.81 $813.40 163,535 view
P 2020-07-09 2020-07-10 11:27:49.0 RENN Fund, Inc. RCG STAHL MURRAY CEO 100 $1.29 $129.34 4,934 view
P 2020-07-09 2020-07-10 11:27:49.0 RENN Fund, Inc. RCG STAHL MURRAY director officer (President and CEO) 25 $1.29 $32.34 4,959 view
P 2020-07-09 2020-07-10 11:27:49.0 RENN Fund, Inc. RCG STAHL MURRAY CEO 100 $1.29 $129.34 5,059 view
P 2020-07-08 2020-07-10 11:21:48.0 Lord Abbett Credit Opportunities Fund LCRDX LORD, ABBETT & CO. LLC other 835,547 $9.01 $7,528,280.00 957,448 view
P 2018-04-30 2020-07-10 10:57:05.0 Workhorse Group Inc. WKHS LUKENS JOSEPH THEODORE JR 10% owner 36,765 $2.82 $103,677.00 7,007,050 view
S 2019-07-16 2020-07-10 10:57:05.0 Workhorse Group Inc. WKHS LUKENS JOSEPH THEODORE JR 10% owner 267,356 $3.60 $962,482.00 7,149,850 view
S 2019-07-22 2020-07-10 10:57:05.0 Workhorse Group Inc. WKHS LUKENS JOSEPH THEODORE JR 10% owner 109,000 $3.48 $379,320.00 7,040,850 view
S 2020-02-18 2020-07-10 10:57:05.0 Workhorse Group Inc. WKHS LUKENS JOSEPH THEODORE JR 10% owner 83,644 $3.36 $281,044.00 6,957,200 view
S 2020-02-21 2020-07-10 10:57:05.0 Workhorse Group Inc. WKHS LUKENS JOSEPH THEODORE JR 10% owner 4,946 $3.90 $19,289.40 6,952,260 view
S 2020-02-25 2020-07-10 10:57:05.0 Workhorse Group Inc. WKHS LUKENS JOSEPH THEODORE JR 10% owner 200 $3.70 $740.00 6,952,060 view
S 2020-02-26 2020-07-10 10:57:05.0 Workhorse Group Inc. WKHS LUKENS JOSEPH THEODORE JR 10% owner 61,700 $3.62 $223,354.00 6,890,360 view
S 2020-03-03 2020-07-10 10:57:05.0 Workhorse Group Inc. WKHS LUKENS JOSEPH THEODORE JR 10% owner 100,000 $2.99 $299,000.00 6,790,360 view
S 2020-03-11 2020-07-10 10:57:05.0 Workhorse Group Inc. WKHS LUKENS JOSEPH THEODORE JR 10% owner 15,000 $2.36 $35,400.00 6,775,360 view
S 2020-04-05 2020-07-10 10:57:05.0 Workhorse Group Inc. WKHS LUKENS JOSEPH THEODORE JR 10% owner 18,154 $3.24 $58,819.00 6,757,200 view
S 2020-06-30 2020-07-10 10:57:05.0 Workhorse Group Inc. WKHS LUKENS JOSEPH THEODORE JR 10% owner 500,000 $18.40 $9,200,000.00 5,602,420 view
S 2020-07-01 2020-07-10 10:57:05.0 Workhorse Group Inc. WKHS LUKENS JOSEPH THEODORE JR 10% owner 100,000 $20.00 $2,000,000.00 5,502,420 view
P 2020-07-09 2020-07-10 10:56:16.0 TEXAS PACIFIC LAND TRUST TPL HORIZON KINETICS ASSET MANAGEMENT LLC 10% owner 178 $542.59 $96,581.00 281,607 view
S 2020-07-07 2020-07-10 08:04:04.0 Twist Bioscience Corp TWST Finn Patrick John (Chief Commercial Officer) 15,264 $47.03 $717,916.00 11,097 view
S 2020-07-07 2020-07-10 08:04:04.0 Twist Bioscience Corp TWST Finn Patrick John (Chief Commercial Officer) 820 $48.47 $39,741.50 10,277 view
S 2020-07-07 2020-07-10 08:04:04.0 Twist Bioscience Corp TWST Leproust Emily M. (President & CEO) 300 $49.00 $14,700.00 737,755 view
S 2020-07-08 2020-07-10 08:04:04.0 Twist Bioscience Corp TWST Leproust Emily M. (President & CEO) 8,187 $49.88 $408,408.00 729,568 view
S 2020-07-08 2020-07-10 08:04:04.0 Twist Bioscience Corp TWST Leproust Emily M. (President & CEO) 9,430 $50.51 $476,267.00 720,138 view
S 2020-07-08 2020-07-10 08:04:04.0 Twist Bioscience Corp TWST Leproust Emily M. (President & CEO) 1,883 $51.60 $97,165.80 718,255 view
S 2020-07-08 2020-07-10 08:04:04.0 Twist Bioscience Corp TWST Leproust Emily M. (President & CEO) 200 $52.24 $10,448.00 718,055 view
* Filed by insider as open market transaction, but marked as private transaction by insidercow's proprietary method
First 303 records showed to non-members. For ALL insider purchases filed 5 days ago, go to our Latest Buys page.